sensor_id;sensor_type;location;lat;lon;timestamp;pressure;altitude;pressure_sealevel;temperature
21336;BMP180;69435;52.670;13.544;2024-01-30T00:00:58;102217.00;;;4.80
21336;BMP180;69435;52.670;13.544;2024-01-30T00:03:44;102239.00;;;4.70
21336;BMP180;69435;52.670;13.544;2024-01-30T00:06:30;102242.00;;;4.70
21336;BMP180;69435;52.670;13.544;2024-01-30T00:09:17;102239.00;;;4.70
21336;BMP180;69435;52.670;13.544;2024-01-30T00:12:03;102240.00;;;4.70
21336;BMP180;69435;52.670;13.544;2024-01-30T00:14:49;102240.00;;;4.70
21336;BMP180;69435;52.670;13.544;2024-01-30T00:17:36;102220.00;;;4.70
21336;BMP180;69435;52.670;13.544;2024-01-30T00:20:22;102245.00;;;4.70
21336;BMP180;69435;52.670;13.544;2024-01-30T00:23:08;102251.00;;;4.60
21336;BMP180;69435;52.670;13.544;2024-01-30T00:25:54;102224.00;;;4.50
21336;BMP180;69435;52.670;13.544;2024-01-30T00:28:42;102224.00;;;4.60
21336;BMP180;69435;52.670;13.544;2024-01-30T00:31:28;102257.00;;;4.60
21336;BMP180;69435;52.670;13.544;2024-01-30T00:34:15;102239.00;;;4.50
21336;BMP180;69435;52.670;13.544;2024-01-30T00:37:01;102253.00;;;4.50
21336;BMP180;69435;52.670;13.544;2024-01-30T00:39:47;102216.00;;;4.50
21336;BMP180;69435;52.670;13.544;2024-01-30T00:42:33;102256.00;;;4.50
21336;BMP180;69435;52.670;13.544;2024-01-30T00:45:19;102235.00;;;4.50
21336;BMP180;69435;52.670;13.544;2024-01-30T00:48:05;102235.00;;;4.40
21336;BMP180;69435;52.670;13.544;2024-01-30T00:50:51;102227.00;;;4.40
21336;BMP180;69435;52.670;13.544;2024-01-30T00:53:37;102247.00;;;4.40
21336;BMP180;69435;52.670;13.544;2024-01-30T00:56:23;102241.00;;;4.40
21336;BMP180;69435;52.670;13.544;2024-01-30T00:59:11;102223.00;;;4.40
21336;BMP180;69435;52.670;13.544;2024-01-30T01:01:57;102233.00;;;4.40
21336;BMP180;69435;52.670;13.544;2024-01-30T01:04:43;102238.00;;;4.40
21336;BMP180;69435;52.670;13.544;2024-01-30T01:07:30;102247.00;;;4.40
21336;BMP180;69435;52.670;13.544;2024-01-30T01:10:19;102238.00;;;4.30
21336;BMP180;69435;52.670;13.544;2024-01-30T01:13:05;102250.00;;;4.30
21336;BMP180;69435;52.670;13.544;2024-01-30T01:15:51;102226.00;;;4.30
21336;BMP180;69435;52.670;13.544;2024-01-30T01:18:37;102229.00;;;4.30
21336;BMP180;69435;52.670;13.544;2024-01-30T01:21:23;102228.00;;;4.30
21336;BMP180;69435;52.670;13.544;2024-01-30T01:24:09;102235.00;;;4.30
21336;BMP180;69435;52.670;13.544;2024-01-30T01:26:55;102233.00;;;4.30
21336;BMP180;69435;52.670;13.544;2024-01-30T01:29:42;102239.00;;;4.30
21336;BMP180;69435;52.670;13.544;2024-01-30T01:32:29;102236.00;;;4.30
21336;BMP180;69435;52.670;13.544;2024-01-30T01:35:15;102228.00;;;4.30
21336;BMP180;69435;52.670;13.544;2024-01-30T01:38:01;102219.00;;;4.30
21336;BMP180;69435;52.670;13.544;2024-01-30T01:40:48;102225.00;;;4.30
21336;BMP180;69435;52.670;13.544;2024-01-30T01:43:34;102228.00;;;4.20
21336;BMP180;69435;52.670;13.544;2024-01-30T01:46:20;102241.00;;;4.20
21336;BMP180;69435;52.670;13.544;2024-01-30T01:49:07;102118.00;;;4.20
21336;BMP180;69435;52.670;13.544;2024-01-30T01:51:55;102233.00;;;4.20
21336;BMP180;69435;52.670;13.544;2024-01-30T01:54:45;102234.00;;;4.20
21336;BMP180;69435;52.670;13.544;2024-01-30T01:57:33;102192.00;;;4.20
21336;BMP180;69435;52.670;13.544;2024-01-30T02:00:20;102238.00;;;4.20
21336;BMP180;69435;52.670;13.544;2024-01-30T02:03:08;102236.00;;;4.20
21336;BMP180;69435;52.670;13.544;2024-01-30T02:05:56;102221.00;;;4.20
21336;BMP180;69435;52.670;13.544;2024-01-30T02:08:42;102196.00;;;4.20
21336;BMP180;69435;52.670;13.544;2024-01-30T02:11:28;102233.00;;;4.10
21336;BMP180;69435;52.670;13.544;2024-01-30T02:14:14;102236.00;;;4.20
21336;BMP180;69435;52.670;13.544;2024-01-30T02:17:00;102232.00;;;4.10
21336;BMP180;69435;52.670;13.544;2024-01-30T02:19:47;102236.00;;;4.10
21336;BMP180;69435;52.670;13.544;2024-01-30T02:22:34;102231.00;;;4.20
21336;BMP180;69435;52.670;13.544;2024-01-30T02:25:36;102227.00;;;4.20
21336;BMP180;69435;52.670;13.544;2024-01-30T02:28:22;102219.00;;;4.20
21336;BMP180;69435;52.670;13.544;2024-01-30T02:31:08;102227.00;;;4.20
21336;BMP180;69435;52.670;13.544;2024-01-30T02:33:54;102221.00;;;4.20
21336;BMP180;69435;52.670;13.544;2024-01-30T02:36:43;102225.00;;;4.20
21336;BMP180;69435;52.670;13.544;2024-01-30T02:39:29;102222.00;;;4.20
21336;BMP180;69435;52.670;13.544;2024-01-30T02:42:15;102223.00;;;4.20
21336;BMP180;69435;52.670;13.544;2024-01-30T02:45:01;102224.00;;;4.20
21336;BMP180;69435;52.670;13.544;2024-01-30T02:47:47;102208.00;;;4.30
21336;BMP180;69435;52.670;13.544;2024-01-30T02:50:34;102215.00;;;4.20
21336;BMP180;69435;52.670;13.544;2024-01-30T02:53:20;102225.00;;;4.30
21336;BMP180;69435;52.670;13.544;2024-01-30T02:56:06;102208.00;;;4.20
21336;BMP180;69435;52.670;13.544;2024-01-30T02:58:55;102198.00;;;4.30
21336;BMP180;69435;52.670;13.544;2024-01-30T03:01:44;102217.00;;;4.30
21336;BMP180;69435;52.670;13.544;2024-01-30T03:04:30;102193.00;;;4.20
21336;BMP180;69435;52.670;13.544;2024-01-30T03:07:16;102187.00;;;4.20
21336;BMP180;69435;52.670;13.544;2024-01-30T03:10:04;102210.00;;;4.20
21336;BMP180;69435;52.670;13.544;2024-01-30T03:12:51;102217.00;;;4.20
21336;BMP180;69435;52.670;13.544;2024-01-30T03:15:37;102212.00;;;4.20
21336;BMP180;69435;52.670;13.544;2024-01-30T03:18:23;102180.00;;;4.20
21336;BMP180;69435;52.670;13.544;2024-01-30T03:21:09;102208.00;;;4.20
21336;BMP180;69435;52.670;13.544;2024-01-30T03:23:55;102197.00;;;4.20
21336;BMP180;69435;52.670;13.544;2024-01-30T03:26:41;102203.00;;;4.20
21336;BMP180;69435;52.670;13.544;2024-01-30T03:29:27;102212.00;;;4.10
21336;BMP180;69435;52.670;13.544;2024-01-30T03:32:13;102184.00;;;4.20
21336;BMP180;69435;52.670;13.544;2024-01-30T03:34:59;102192.00;;;4.10
21336;BMP180;69435;52.670;13.544;2024-01-30T03:37:46;102194.00;;;4.10
21336;BMP180;69435;52.670;13.544;2024-01-30T03:40:31;102184.00;;;4.10
21336;BMP180;69435;52.670;13.544;2024-01-30T03:43:17;102176.00;;;4.10
21336;BMP180;69435;52.670;13.544;2024-01-30T03:46:03;102187.00;;;4.10
21336;BMP180;69435;52.670;13.544;2024-01-30T03:48:50;102201.00;;;4.10
21336;BMP180;69435;52.670;13.544;2024-01-30T03:51:36;102194.00;;;4.10
21336;BMP180;69435;52.670;13.544;2024-01-30T03:54:22;102196.00;;;4.10
21336;BMP180;69435;52.670;13.544;2024-01-30T03:57:08;102189.00;;;4.00
21336;BMP180;69435;52.670;13.544;2024-01-30T03:59:54;102209.00;;;4.00
21336;BMP180;69435;52.670;13.544;2024-01-30T04:02:40;102192.00;;;4.00
21336;BMP180;69435;52.670;13.544;2024-01-30T04:05:26;102193.00;;;4.00
21336;BMP180;69435;52.670;13.544;2024-01-30T04:08:12;102153.00;;;4.00
21336;BMP180;69435;52.670;13.544;2024-01-30T04:10:58;102186.00;;;4.00
21336;BMP180;69435;52.670;13.544;2024-01-30T04:13:44;102190.00;;;4.00
21336;BMP180;69435;52.670;13.544;2024-01-30T04:16:32;102174.00;;;4.00
21336;BMP180;69435;52.670;13.544;2024-01-30T04:19:18;102204.00;;;4.00
21336;BMP180;69435;52.670;13.544;2024-01-30T04:22:04;102203.00;;;4.00
21336;BMP180;69435;52.670;13.544;2024-01-30T04:24:51;102197.00;;;4.10
21336;BMP180;69435;52.670;13.544;2024-01-30T04:27:37;102168.00;;;4.00
21336;BMP180;69435;52.670;13.544;2024-01-30T04:30:23;102172.00;;;4.00
21336;BMP180;69435;52.670;13.544;2024-01-30T04:33:10;102183.00;;;4.00
21336;BMP180;69435;52.670;13.544;2024-01-30T04:35:56;102207.00;;;4.00
21336;BMP180;69435;52.670;13.544;2024-01-30T04:38:42;102147.00;;;4.10
21336;BMP180;69435;52.670;13.544;2024-01-30T04:41:28;102184.00;;;4.10
21336;BMP180;69435;52.670;13.544;2024-01-30T04:44:17;102176.00;;;4.10
21336;BMP180;69435;52.670;13.544;2024-01-30T04:47:03;102181.00;;;4.10
21336;BMP180;69435;52.670;13.544;2024-01-30T04:49:51;102153.00;;;4.10
21336;BMP180;69435;52.670;13.544;2024-01-30T04:52:37;102189.00;;;4.10
21336;BMP180;69435;52.670;13.544;2024-01-30T04:55:23;102178.00;;;4.10
21336;BMP180;69435;52.670;13.544;2024-01-30T04:58:09;102172.00;;;4.10
21336;BMP180;69435;52.670;13.544;2024-01-30T05:00:55;102174.00;;;4.10
21336;BMP180;69435;52.670;13.544;2024-01-30T05:03:41;102173.00;;;4.10
21336;BMP180;69435;52.670;13.544;2024-01-30T05:06:27;102186.00;;;4.10
21336;BMP180;69435;52.670;13.544;2024-01-30T05:09:13;102148.00;;;4.10
21336;BMP180;69435;52.670;13.544;2024-01-30T05:11:59;102175.00;;;4.20
21336;BMP180;69435;52.670;13.544;2024-01-30T05:14:45;102170.00;;;4.10
21336;BMP180;69435;52.670;13.544;2024-01-30T05:17:31;102179.00;;;4.10
21336;BMP180;69435;52.670;13.544;2024-01-30T05:20:17;102164.00;;;4.10
21336;BMP180;69435;52.670;13.544;2024-01-30T05:23:04;102149.00;;;4.10
21336;BMP180;69435;52.670;13.544;2024-01-30T05:25:49;102147.00;;;4.10
21336;BMP180;69435;52.670;13.544;2024-01-30T05:28:35;102164.00;;;4.10
21336;BMP180;69435;52.670;13.544;2024-01-30T05:31:22;102174.00;;;4.10
21336;BMP180;69435;52.670;13.544;2024-01-30T05:34:08;102183.00;;;3.90
21336;BMP180;69435;52.670;13.544;2024-01-30T05:36:54;102172.00;;;4.10
21336;BMP180;69435;52.670;13.544;2024-01-30T05:39:40;102174.00;;;4.10
21336;BMP180;69435;52.670;13.544;2024-01-30T05:42:26;102179.00;;;4.10
21336;BMP180;69435;52.670;13.544;2024-01-30T05:45:12;102157.00;;;4.10
21336;BMP180;69435;52.670;13.544;2024-01-30T05:47:58;102187.00;;;4.10
21336;BMP180;69435;52.670;13.544;2024-01-30T05:50:44;102173.00;;;4.10
21336;BMP180;69435;52.670;13.544;2024-01-30T05:53:31;102184.00;;;4.10
21336;BMP180;69435;52.670;13.544;2024-01-30T05:56:17;102188.00;;;4.10
21336;BMP180;69435;52.670;13.544;2024-01-30T05:59:02;102158.00;;;4.10
21336;BMP180;69435;52.670;13.544;2024-01-30T06:01:49;102181.00;;;4.10
21336;BMP180;69435;52.670;13.544;2024-01-30T06:04:35;102172.00;;;4.00
21336;BMP180;69435;52.670;13.544;2024-01-30T06:07:21;102177.00;;;4.10
21336;BMP180;69435;52.670;13.544;2024-01-30T06:10:08;102151.00;;;4.10
21336;BMP180;69435;52.670;13.544;2024-01-30T06:12:54;102177.00;;;4.00
21336;BMP180;69435;52.670;13.544;2024-01-30T06:15:40;102171.00;;;4.00
21336;BMP180;69435;52.670;13.544;2024-01-30T06:18:26;102183.00;;;4.00
21336;BMP180;69435;52.670;13.544;2024-01-30T06:21:13;102172.00;;;3.80
21336;BMP180;69435;52.670;13.544;2024-01-30T06:23:59;102115.00;;;4.00
21336;BMP180;69435;52.670;13.544;2024-01-30T06:26:45;102164.00;;;4.00
21336;BMP180;69435;52.670;13.544;2024-01-30T06:29:30;102149.00;;;4.00
21336;BMP180;69435;52.670;13.544;2024-01-30T06:32:16;102160.00;;;4.00
21336;BMP180;69435;52.670;13.544;2024-01-30T06:35:03;102150.00;;;4.00
21336;BMP180;69435;52.670;13.544;2024-01-30T06:37:49;102173.00;;;4.00
21336;BMP180;69435;52.670;13.544;2024-01-30T06:40:35;102159.00;;;4.00
21336;BMP180;69435;52.670;13.544;2024-01-30T06:43:22;102178.00;;;4.00
21336;BMP180;69435;52.670;13.544;2024-01-30T06:46:08;102152.00;;;4.00
21336;BMP180;69435;52.670;13.544;2024-01-30T06:48:54;102128.00;;;4.10
21336;BMP180;69435;52.670;13.544;2024-01-30T06:51:40;102148.00;;;4.10
21336;BMP180;69435;52.670;13.544;2024-01-30T06:54:26;102151.00;;;4.10
21336;BMP180;69435;52.670;13.544;2024-01-30T06:57:12;102160.00;;;4.10
21336;BMP180;69435;52.670;13.544;2024-01-30T07:00:00;102171.00;;;4.10
21336;BMP180;69435;52.670;13.544;2024-01-30T07:02:46;102179.00;;;4.10
21336;BMP180;69435;52.670;13.544;2024-01-30T07:05:32;102152.00;;;4.10
21336;BMP180;69435;52.670;13.544;2024-01-30T07:08:18;102141.00;;;4.10
21336;BMP180;69435;52.670;13.544;2024-01-30T07:11:05;102161.00;;;4.20
21336;BMP180;69435;52.670;13.544;2024-01-30T07:13:52;102173.00;;;4.20
21336;BMP180;69435;52.670;13.544;2024-01-30T07:16:38;102178.00;;;4.20
21336;BMP180;69435;52.670;13.544;2024-01-30T07:19:24;102165.00;;;4.30
21336;BMP180;69435;52.670;13.544;2024-01-30T07:22:10;102142.00;;;4.30
21336;BMP180;69435;52.670;13.544;2024-01-30T07:24:56;102155.00;;;4.30
21336;BMP180;69435;52.670;13.544;2024-01-30T07:27:42;102154.00;;;4.40
21336;BMP180;69435;52.670;13.544;2024-01-30T07:30:28;102145.00;;;4.40
21336;BMP180;69435;52.670;13.544;2024-01-30T07:33:14;102161.00;;;4.50
21336;BMP180;69435;52.670;13.544;2024-01-30T07:36:00;102162.00;;;4.50
21336;BMP180;69435;52.670;13.544;2024-01-30T07:38:46;102167.00;;;4.60
21336;BMP180;69435;52.670;13.544;2024-01-30T07:41:32;102158.00;;;4.70
21336;BMP180;69435;52.670;13.544;2024-01-30T07:44:18;102152.00;;;4.70
21336;BMP180;69435;52.670;13.544;2024-01-30T07:47:05;102141.00;;;4.80
21336;BMP180;69435;52.670;13.544;2024-01-30T07:49:51;102151.00;;;4.90
21336;BMP180;69435;52.670;13.544;2024-01-30T07:52:37;102152.00;;;5.00
21336;BMP180;69435;52.670;13.544;2024-01-30T07:55:25;102116.00;;;5.10
21336;BMP180;69435;52.670;13.544;2024-01-30T07:58:13;102131.00;;;5.30
21336;BMP180;69435;52.670;13.544;2024-01-30T08:00:59;102130.00;;;5.40
21336;BMP180;69435;52.670;13.544;2024-01-30T08:03:46;102140.00;;;5.50
21336;BMP180;69435;52.670;13.544;2024-01-30T08:06:33;102155.00;;;5.60
21336;BMP180;69435;52.670;13.544;2024-01-30T08:09:19;102146.00;;;5.50
21336;BMP180;69435;52.670;13.544;2024-01-30T08:12:05;102138.00;;;5.80
21336;BMP180;69435;52.670;13.544;2024-01-30T08:14:51;102137.00;;;5.90
21336;BMP180;69435;52.670;13.544;2024-01-30T08:17:37;102142.00;;;6.00
21336;BMP180;69435;52.670;13.544;2024-01-30T08:20:24;102143.00;;;6.10
21336;BMP180;69435;52.670;13.544;2024-01-30T08:23:10;102137.00;;;6.20
21336;BMP180;69435;52.670;13.544;2024-01-30T08:25:56;102153.00;;;6.40
21336;BMP180;69435;52.670;13.544;2024-01-30T08:28:42;102129.00;;;6.50
21336;BMP180;69435;52.670;13.544;2024-01-30T08:31:28;102137.00;;;6.70
21336;BMP180;69435;52.670;13.544;2024-01-30T08:34:14;102131.00;;;6.80
21336;BMP180;69435;52.670;13.544;2024-01-30T08:37:00;102121.00;;;6.90
21336;BMP180;69435;52.670;13.544;2024-01-30T08:39:46;102137.00;;;7.10
21336;BMP180;69435;52.670;13.544;2024-01-30T08:42:32;102142.00;;;7.30
21336;BMP180;69435;52.670;13.544;2024-01-30T08:45:19;102139.00;;;7.50
21336;BMP180;69435;52.670;13.544;2024-01-30T08:48:05;102134.00;;;7.70
21336;BMP180;69435;52.670;13.544;2024-01-30T08:50:51;102114.00;;;8.00
21336;BMP180;69435;52.670;13.544;2024-01-30T08:53:38;102114.00;;;8.20
21336;BMP180;69435;52.670;13.544;2024-01-30T08:56:23;102122.00;;;8.40
21336;BMP180;69435;52.670;13.544;2024-01-30T08:59:09;102085.00;;;8.60
21336;BMP180;69435;52.670;13.544;2024-01-30T09:01:57;102125.00;;;8.80
21336;BMP180;69435;52.670;13.544;2024-01-30T09:04:44;102122.00;;;8.90
21336;BMP180;69435;52.670;13.544;2024-01-30T09:07:30;102097.00;;;9.00
21336;BMP180;69435;52.670;13.544;2024-01-30T09:10:16;102106.00;;;9.20
21336;BMP180;69435;52.670;13.544;2024-01-30T09:13:02;102134.00;;;9.40
21336;BMP180;69435;52.670;13.544;2024-01-30T09:15:48;102107.00;;;9.50
21336;BMP180;69435;52.670;13.544;2024-01-30T09:18:34;102117.00;;;9.60
21336;BMP180;69435;52.670;13.544;2024-01-30T09:21:20;102114.00;;;9.70
21336;BMP180;69435;52.670;13.544;2024-01-30T09:24:07;102116.00;;;9.70
21336;BMP180;69435;52.670;13.544;2024-01-30T09:26:53;102125.00;;;9.90
21336;BMP180;69435;52.670;13.544;2024-01-30T09:29:39;102121.00;;;9.90
21336;BMP180;69435;52.670;13.544;2024-01-30T09:32:25;102102.00;;;9.90
21336;BMP180;69435;52.670;13.544;2024-01-30T09:35:12;102111.00;;;10.00
21336;BMP180;69435;52.670;13.544;2024-01-30T09:37:58;102117.00;;;10.00
21336;BMP180;69435;52.670;13.544;2024-01-30T09:40:54;102120.00;;;10.00
21336;BMP180;69435;52.670;13.544;2024-01-30T09:43:47;102110.00;;;10.00
21336;BMP180;69435;52.670;13.544;2024-01-30T09:46:35;102117.00;;;10.00
21336;BMP180;69435;52.670;13.544;2024-01-30T09:49:22;102093.00;;;10.10
21336;BMP180;69435;52.670;13.544;2024-01-30T09:52:11;102115.00;;;10.00
21336;BMP180;69435;52.670;13.544;2024-01-30T09:55:00;102111.00;;;10.00
21336;BMP180;69435;52.670;13.544;2024-01-30T09:57:47;102104.00;;;10.10
21336;BMP180;69435;52.670;13.544;2024-01-30T10:00:33;102092.00;;;10.10
21336;BMP180;69435;52.670;13.544;2024-01-30T10:03:19;102112.00;;;10.10
21336;BMP180;69435;52.670;13.544;2024-01-30T10:06:06;102112.00;;;10.10
21336;BMP180;69435;52.670;13.544;2024-01-30T10:08:53;102087.00;;;10.20
21336;BMP180;69435;52.670;13.544;2024-01-30T10:11:39;102082.00;;;10.30
21336;BMP180;69435;52.670;13.544;2024-01-30T10:14:25;102105.00;;;10.40
21336;BMP180;69435;52.670;13.544;2024-01-30T10:17:12;102090.00;;;10.50
21336;BMP180;69435;52.670;13.544;2024-01-30T10:19:58;102087.00;;;10.60
21336;BMP180;69435;52.670;13.544;2024-01-30T10:22:44;102073.00;;;10.70
21336;BMP180;69435;52.670;13.544;2024-01-30T10:25:31;102094.00;;;10.80
21336;BMP180;69435;52.670;13.544;2024-01-30T10:28:18;102088.00;;;10.70
21336;BMP180;69435;52.670;13.544;2024-01-30T10:31:04;102080.00;;;10.70
21336;BMP180;69435;52.670;13.544;2024-01-30T10:33:50;102082.00;;;10.80
21336;BMP180;69435;52.670;13.544;2024-01-30T10:36:46;102072.00;;;10.80
21336;BMP180;69435;52.670;13.544;2024-01-30T10:39:39;102096.00;;;10.80
21336;BMP180;69435;52.670;13.544;2024-01-30T10:42:31;102085.00;;;10.70
21336;BMP180;69435;52.670;13.544;2024-01-30T10:45:17;102080.00;;;10.80
21336;BMP180;69435;52.670;13.544;2024-01-30T10:48:06;102050.00;;;10.90
21336;BMP180;69435;52.670;13.544;2024-01-30T10:50:58;102094.00;;;10.90
21336;BMP180;69435;52.670;13.544;2024-01-30T10:53:46;102071.00;;;10.90
21336;BMP180;69435;52.670;13.544;2024-01-30T10:56:35;102058.00;;;10.90
21336;BMP180;69435;52.670;13.544;2024-01-30T10:59:24;102084.00;;;11.00
21336;BMP180;69435;52.670;13.544;2024-01-30T11:02:11;102069.00;;;11.00
21336;BMP180;69435;52.670;13.544;2024-01-30T11:04:59;102071.00;;;11.10
21336;BMP180;69435;52.670;13.544;2024-01-30T11:07:45;102072.00;;;11.20
21336;BMP180;69435;52.670;13.544;2024-01-30T11:10:31;102088.00;;;11.30
21336;BMP180;69435;52.670;13.544;2024-01-30T11:13:19;102069.00;;;11.30
21336;BMP180;69435;52.670;13.544;2024-01-30T11:16:05;102058.00;;;11.40
21336;BMP180;69435;52.670;13.544;2024-01-30T11:18:52;102051.00;;;11.40
21336;BMP180;69435;52.670;13.544;2024-01-30T11:21:44;102064.00;;;11.50
21336;BMP180;69435;52.670;13.544;2024-01-30T11:24:30;102067.00;;;11.50
21336;BMP180;69435;52.670;13.544;2024-01-30T11:27:16;102045.00;;;11.60
21336;BMP180;69435;52.670;13.544;2024-01-30T11:30:03;102036.00;;;11.60
21336;BMP180;69435;52.670;13.544;2024-01-30T11:33:12;102051.00;;;11.70
21336;BMP180;69435;52.670;13.544;2024-01-30T11:35:59;102059.00;;;11.80
21336;BMP180;69435;52.670;13.544;2024-01-30T11:38:45;102051.00;;;11.90
21336;BMP180;69435;52.670;13.544;2024-01-30T11:41:32;102041.00;;;12.00
21336;BMP180;69435;52.670;13.544;2024-01-30T11:44:20;102055.00;;;12.00
21336;BMP180;69435;52.670;13.544;2024-01-30T11:47:06;102048.00;;;12.00
21336;BMP180;69435;52.670;13.544;2024-01-30T11:49:53;102046.00;;;12.00
21336;BMP180;69435;52.670;13.544;2024-01-30T11:52:39;102052.00;;;12.10
21336;BMP180;69435;52.670;13.544;2024-01-30T11:55:26;102051.00;;;12.10
21336;BMP180;69435;52.670;13.544;2024-01-30T11:58:12;102041.00;;;12.10
21336;BMP180;69435;52.670;13.544;2024-01-30T12:00:58;102046.00;;;12.00
21336;BMP180;69435;52.670;13.544;2024-01-30T12:03:51;102036.00;;;12.10
21336;BMP180;69435;52.670;13.544;2024-01-30T12:06:38;102025.00;;;12.00
21336;BMP180;69435;52.670;13.544;2024-01-30T12:09:25;102029.00;;;12.00
21336;BMP180;69435;52.670;13.544;2024-01-30T12:12:11;102029.00;;;12.00
21336;BMP180;69435;52.670;13.544;2024-01-30T12:14:57;101983.00;;;12.10
21336;BMP180;69435;52.670;13.544;2024-01-30T12:17:43;102032.00;;;12.10
21336;BMP180;69435;52.670;13.544;2024-01-30T12:20:29;102019.00;;;12.10
21336;BMP180;69435;52.670;13.544;2024-01-30T12:23:16;102022.00;;;12.10
21336;BMP180;69435;52.670;13.544;2024-01-30T12:26:04;102026.00;;;12.10
21336;BMP180;69435;52.670;13.544;2024-01-30T12:28:56;102010.00;;;12.20
21336;BMP180;69435;52.670;13.544;2024-01-30T12:31:43;102003.00;;;12.20
21336;BMP180;69435;52.670;13.544;2024-01-30T12:34:30;101996.00;;;12.20
21336;BMP180;69435;52.670;13.544;2024-01-30T12:37:16;102014.00;;;12.20
21336;BMP180;69435;52.670;13.544;2024-01-30T12:40:08;102011.00;;;12.20
21336;BMP180;69435;52.670;13.544;2024-01-30T12:42:55;101990.00;;;12.20
21336;BMP180;69435;52.670;13.544;2024-01-30T12:45:42;101998.00;;;12.20
21336;BMP180;69435;52.670;13.544;2024-01-30T12:48:28;101998.00;;;12.30
21336;BMP180;69435;52.670;13.544;2024-01-30T12:51:15;101992.00;;;12.30
21336;BMP180;69435;52.670;13.544;2024-01-30T12:54:06;101992.00;;;12.30
21336;BMP180;69435;52.670;13.544;2024-01-30T12:56:52;101957.00;;;12.30
21336;BMP180;69435;52.670;13.544;2024-01-30T12:59:38;101983.00;;;12.30
21336;BMP180;69435;52.670;13.544;2024-01-30T13:02:25;101988.00;;;12.20
21336;BMP180;69435;52.670;13.544;2024-01-30T13:05:12;101995.00;;;12.20
21336;BMP180;69435;52.670;13.544;2024-01-30T13:07:58;101984.00;;;12.30
21336;BMP180;69435;52.670;13.544;2024-01-30T13:10:44;102000.00;;;12.20
21336;BMP180;69435;52.670;13.544;2024-01-30T13:13:30;101988.00;;;12.20
21336;BMP180;69435;52.670;13.544;2024-01-30T13:16:16;101982.00;;;12.20
21336;BMP180;69435;52.670;13.544;2024-01-30T13:19:02;101961.00;;;12.20
21336;BMP180;69435;52.670;13.544;2024-01-30T13:21:48;101984.00;;;12.20
21336;BMP180;69435;52.670;13.544;2024-01-30T13:24:34;101973.00;;;12.20
21336;BMP180;69435;52.670;13.544;2024-01-30T13:27:20;101974.00;;;12.20
21336;BMP180;69435;52.670;13.544;2024-01-30T13:30:07;101969.00;;;12.20
21336;BMP180;69435;52.670;13.544;2024-01-30T13:32:55;101977.00;;;12.10
21336;BMP180;69435;52.670;13.544;2024-01-30T13:35:41;101980.00;;;12.10
21336;BMP180;69435;52.670;13.544;2024-01-30T13:38:27;101980.00;;;12.00
21336;BMP180;69435;52.670;13.544;2024-01-30T13:41:13;101968.00;;;12.00
21336;BMP180;69435;52.670;13.544;2024-01-30T13:43:59;101982.00;;;12.00
21336;BMP180;69435;52.670;13.544;2024-01-30T13:46:45;101983.00;;;12.00
21336;BMP180;69435;52.670;13.544;2024-01-30T13:49:32;101977.00;;;11.90
21336;BMP180;69435;52.670;13.544;2024-01-30T13:52:18;101962.00;;;11.90
21336;BMP180;69435;52.670;13.544;2024-01-30T13:55:04;101974.00;;;11.90
21336;BMP180;69435;52.670;13.544;2024-01-30T13:57:50;101983.00;;;11.80
21336;BMP180;69435;52.670;13.544;2024-01-30T14:00:36;101967.00;;;11.90
21336;BMP180;69435;52.670;13.544;2024-01-30T14:03:22;101963.00;;;11.80
21336;BMP180;69435;52.670;13.544;2024-01-30T14:06:09;101948.00;;;11.80
21336;BMP180;69435;52.670;13.544;2024-01-30T14:08:55;101955.00;;;11.80
21336;BMP180;69435;52.670;13.544;2024-01-30T14:11:41;101958.00;;;11.80
21336;BMP180;69435;52.670;13.544;2024-01-30T14:14:28;101962.00;;;11.80
21336;BMP180;69435;52.670;13.544;2024-01-30T14:17:14;101969.00;;;11.80
21336;BMP180;69435;52.670;13.544;2024-01-30T14:20:00;101968.00;;;11.80
21336;BMP180;69435;52.670;13.544;2024-01-30T14:22:46;101970.00;;;11.80
21336;BMP180;69435;52.670;13.544;2024-01-30T14:25:32;101958.00;;;11.80
21336;BMP180;69435;52.670;13.544;2024-01-30T14:28:18;101965.00;;;11.80
21336;BMP180;69435;52.670;13.544;2024-01-30T14:31:04;101959.00;;;11.80
21336;BMP180;69435;52.670;13.544;2024-01-30T14:33:50;101955.00;;;11.80
21336;BMP180;69435;52.670;13.544;2024-01-30T14:36:38;101954.00;;;11.80
21336;BMP180;69435;52.670;13.544;2024-01-30T14:39:24;101963.00;;;11.80
21336;BMP180;69435;52.670;13.544;2024-01-30T14:42:10;101962.00;;;11.80
21336;BMP180;69435;52.670;13.544;2024-01-30T14:44:56;101949.00;;;11.80
21336;BMP180;69435;52.670;13.544;2024-01-30T14:47:43;101946.00;;;11.80
21336;BMP180;69435;52.670;13.544;2024-01-30T14:50:29;101953.00;;;11.80
21336;BMP180;69435;52.670;13.544;2024-01-30T14:53:15;101962.00;;;11.80
21336;BMP180;69435;52.670;13.544;2024-01-30T14:56:01;101964.00;;;11.80
21336;BMP180;69435;52.670;13.544;2024-01-30T14:58:49;101960.00;;;11.70
21336;BMP180;69435;52.670;13.544;2024-01-30T15:01:35;101940.00;;;11.70
21336;BMP180;69435;52.670;13.544;2024-01-30T15:04:21;101938.00;;;11.70
21336;BMP180;69435;52.670;13.544;2024-01-30T15:07:07;101945.00;;;11.70
21336;BMP180;69435;52.670;13.544;2024-01-30T15:09:53;101962.00;;;11.70
21336;BMP180;69435;52.670;13.544;2024-01-30T15:12:39;101963.00;;;11.70
21336;BMP180;69435;52.670;13.544;2024-01-30T15:15:25;101960.00;;;11.60
21336;BMP180;69435;52.670;13.544;2024-01-30T15:18:10;101961.00;;;11.60
21336;BMP180;69435;52.670;13.544;2024-01-30T15:20:57;101943.00;;;11.60
21336;BMP180;69435;52.670;13.544;2024-01-30T15:23:43;101956.00;;;11.60
21336;BMP180;69435;52.670;13.544;2024-01-30T15:26:29;101974.00;;;11.60
21336;BMP180;69435;52.670;13.544;2024-01-30T15:29:15;101959.00;;;11.50
21336;BMP180;69435;52.670;13.544;2024-01-30T15:32:02;101960.00;;;11.50
21336;BMP180;69435;52.670;13.544;2024-01-30T15:34:48;101954.00;;;11.40
21336;BMP180;69435;52.670;13.544;2024-01-30T15:37:34;101966.00;;;11.30
21336;BMP180;69435;52.670;13.544;2024-01-30T15:40:20;101953.00;;;11.30